WetterOnline ( http://www.wetteronline.de )

Wetter aktuell Blaichach

Aktuelles Wetter: Oberstdorf (812m)

6-stündlich | Neueste Meldungen
Ortszeit Temperatur Wetter
Mi, 20.02. 1:00 0.9° C bedeckt
Di, 19.02. 19:00 3.5° C bedeckt
Di, 19.02. 13:00 7.2° C wolkenlos
Di, 19.02. 7:00 -2.8° C leicht bewölkt
Di, 19.02. 1:00 -5.2° C leicht bewölkt
Mo, 18.02. 19:00 1.2° C wolkenlos
Mo, 18.02. 13:00 5.7° C wolkenlos
Mo, 18.02. 7:00 -8.8° C wolkenlos
Ortszeit Temperatur Wetter
Mi, 20.02. 3:30 0.6° C bedeckt
Mi, 20.02. 3:20 0.6° C bedeckt
Mi, 20.02. 3:10 1.1° C bedeckt
Mi, 20.02. 3:00 0.3° C bewölkt
Mi, 20.02. 2:50 0.3° C bewölkt
Mi, 20.02. 2:40 -0.0° C bewölkt
Mi, 20.02. 2:30 1.2° C bewölkt
Mi, 20.02. 2:00 1.0° C bedeckt
Mi, 20.02. 1:30 1.5° C bedeckt
Mi, 20.02. 1:00 0.9° C bedeckt
Mi, 20.02. 0:30 1.1° C bedeckt
Ortszeit Relative Feuchte Sichtweite
Mi, 20.02. 1:00 83% 55 km
Di, 19.02. 19:00 69% 65 km
Di, 19.02. 13:00 49% 70 km
Di, 19.02. 7:00 79% 45 km
Di, 19.02. 1:00 91% 70 km
Mo, 18.02. 19:00 71% 70 km
Mo, 18.02. 13:00 49% 70 km
Mo, 18.02. 7:00 88% 70 km
Ortszeit Relative Feuchte Sichtweite
Mi, 20.02. 3:30 88% 50 km
Mi, 20.02. 3:20 88% -
Mi, 20.02. 3:10 85% -
Mi, 20.02. 3:00 88% 50 km
Mi, 20.02. 2:50 88% -
Mi, 20.02. 2:40 88% -
Mi, 20.02. 2:30 85% 50 km
Mi, 20.02. 2:00 85% 60 km
Mi, 20.02. 1:30 83% 50 km
Mi, 20.02. 1:00 83% 55 km
Mi, 20.02. 0:30 84% 65 km
Ortszeit Niederschlagsmenge Niederschlagsart
Mi, 20.02. 1:00 0.0 l/m2 in 6 Std. -
Di, 19.02. 19:00 0.0 l/m2 in 12 Std. -
Di, 19.02. 13:00 0.0 l/m2 in 6 Std. -
Di, 19.02. 7:00 0.0 l/m2 in 12 Std. -
Di, 19.02. 1:00 0.0 l/m2 in 6 Std. -
Mo, 18.02. 19:00 0.0 l/m2 in 12 Std. -
Mo, 18.02. 13:00 0.0 l/m2 in 6 Std. -
Mo, 18.02. 7:00 0.0 l/m2 in 12 Std. -
Ortszeit Niederschlagsmenge Niederschlagsart
Mi, 20.02. 3:30 0.0 l/m2 in 1 Std. -
Mi, 20.02. 3:20 keine Meldung -
Mi, 20.02. 3:10 keine Meldung -
Mi, 20.02. 3:00 0.0 l/m2 in 1 Std. -
Mi, 20.02. 2:50 keine Meldung -
Mi, 20.02. 2:40 keine Meldung -
Mi, 20.02. 2:30 0.0 l/m2 in 1 Std. -
Mi, 20.02. 2:00 0.0 l/m2 in 1 Std. -
Mi, 20.02. 1:30 0.0 l/m2 in 1 Std. -
Mi, 20.02. 1:00 0.0 l/m2 in 1 Std. -
Mi, 20.02. 0:30 0.0 l/m2 in 1 Std. -
Ortszeit Stärke Spitze Richtung
km/h Bft. km/h Grad Sektor
Mi, 20.02. 1:00 4 1 18 180° S
Di, 19.02. 19:00 18 3 22 150° SO
Di, 19.02. 13:00 4 1 18 170° S
Di, 19.02. 7:00 7 2 22 160° S
Di, 19.02. 1:00 7 2 14 170° S
Mo, 18.02. 19:00 9 2 17 160° S
Mo, 18.02. 13:00 0 0 11 - -
Mo, 18.02. 7:00 4 1 7 140° SO
Ortszeit Stärke Spitze Richtung
km/h Bft. km/h Grad Sektor
Mi, 20.02. 3:30 4 1 7 90° O
Mi, 20.02. 3:20 4 1 - 90° O
Mi, 20.02. 3:10 4 1 - 210° SW
Mi, 20.02. 3:00 2 1 9 170° S
Mi, 20.02. 2:50 2 1 - 170° S
Mi, 20.02. 2:40 0 0 - 220° SW
Mi, 20.02. 2:30 7 2 7 160° S
Mi, 20.02. 2:00 4 1 14 190° S
Mi, 20.02. 1:30 7 2 11 160° S
Mi, 20.02. 1:00 4 1 11 180° S
Mi, 20.02. 0:30 4 1 11 190° S
Ortszeit Untergrenze Bedeckung Gattung
total tief tief mittel hoch
Mi, 20.02. 1:00 2100 m 8/8 8/8 - - -
Di, 19.02. 19:00 2400 m 8/8 8/8 - - -
Di, 19.02. 13:00 - 0/8 0/8 - - -
Di, 19.02. 7:00 9000 m 3/8 0/8 - - -
Di, 19.02. 1:00 9000 m 4/8 0/8 - - -
Mo, 18.02. 19:00 - 0/8 0/8 - - -
Mo, 18.02. 13:00 - 0/8 0/8 - - -
Mo, 18.02. 7:00 - 0/8 0/8 - - -
Ortszeit Bedeckungsgrad in Achtel und Wolkenuntergrenze
Mi, 20.02. 3:30 7(2100m) 8(2700m)
Mi, 20.02. 3:20 7(2100m) 8(2700m)
Mi, 20.02. 3:10 7(2100m) 8(2700m)
Mi, 20.02. 3:00 1(1500m) 7(2100m) 7(2400m)
Mi, 20.02. 2:50 1(1500m) 7(2100m) 7(2400m)
Mi, 20.02. 2:40 1(1500m) 7(2100m) 7(2400m)
Mi, 20.02. 2:30 1(1500m) 8(2100m) 7(2400m)
Mi, 20.02. 2:00 3(1800m) 4(2100m) 8(2700m)
Mi, 20.02. 1:30 1(1800m) 7(2100m) 8(2700m)
Mi, 20.02. 1:00 3(2100m) 8(2700m)
Mi, 20.02. 0:30 8(2400m)
Ortszeit Stationsdruck (hPa) Tendenz (hPa in 3 Std.)
Mi, 20.02. 1:00 928 - 0,1
Di, 19.02. 19:00 927 + 0,8
Di, 19.02. 13:00 927 - 0,7
Di, 19.02. 7:00 928 + 0,4
Di, 19.02. 1:00 927 + 1,0
Mo, 18.02. 19:00 926 + 0,1
Mo, 18.02. 13:00 927 - 1,6
Mo, 18.02. 7:00 929 - 0,6
Ortszeit Stationsdruck (hPa) Tendenz (hPa in 3 Std.)
Mi, 20.02. 3:30 928 0,0
Mi, 20.02. 3:20 928 keine Meldung
Mi, 20.02. 3:10 928 keine Meldung
Mi, 20.02. 3:00 928 - 0,1
Mi, 20.02. 2:50 928 keine Meldung
Mi, 20.02. 2:40 928 keine Meldung
Mi, 20.02. 2:30 928 - 0,1
Mi, 20.02. 2:00 928 - 0,2
Mi, 20.02. 1:30 928 - 0,3
Mi, 20.02. 1:00 928 - 0,1
Mi, 20.02. 0:30 928 - 0,2
Ortszeit Schneehöhe (cm)
Mi, 20.02. 1:00 60
Di, 19.02. 19:00 60
Di, 19.02. 13:00 61
Di, 19.02. 7:00 62
Di, 19.02. 1:00 62
Mo, 18.02. 19:00 62
Mo, 18.02. 13:00 62
Mo, 18.02. 7:00 62
Ortszeit Schneehöhe (cm)
Mi, 20.02. 3:30 60
Mi, 20.02. 3:20 60
Mi, 20.02. 3:10 60
Mi, 20.02. 3:00 60
Mi, 20.02. 2:50 60
Mi, 20.02. 2:40 60
Mi, 20.02. 2:30 60
Mi, 20.02. 2:00 60
Mi, 20.02. 1:30 60
Mi, 20.02. 1:00 60
Mi, 20.02. 0:30 60
Link zu dieser Seite / Seite empfehlen

Das Wetter in ...